Time;durP1;ratioP1;P1;durP2;ratioP2;P2;SDS_P1;SDS_P2;PMS_P1;PMS_P2;Temp;Humidity;BMP_temperature;BMP_pressure;BME280_temperature;BME280_humidity;BME280_pressure;Samples;Min_cycle;Max_cycle;Signal;HPM_P1;HPM_P2
2022/03/16 00:01:53;;;;;;;26.75;13.05;;;;;;;;;;6240794;23;20000;-83
2022/03/16 00:04:19;;;;;;;27.02;13.63;;;;;;;;;;6241893;23;20054;-83
2022/03/16 00:06:45;;;;;;;33.25;13.48;;;;;;;;;;6242076;23;20205;-84
2022/03/16 00:09:11;;;;;;;27.48;12.88;;;;;;;;;;6240561;23;20011;-83
2022/03/16 00:11:37;;;;;;;28.70;13.60;;;;;;;;;;6213749;23;20015;-83
2022/03/16 00:14:03;;;;;;;26.70;12.70;;;;;;;;;;6240723;23;20302;-83
2022/03/16 00:16:29;;;;;;;28.98;13.55;;;;;;;;;;6240893;23;20000;-83
2022/03/16 00:18:55;;;;;;;26.02;13.32;;;;;;;;;;6240592;23;20016;-83
2022/03/16 00:21:21;;;;;;;23.05;12.82;;;;;;;;;;6240682;23;20007;-85
2022/03/16 00:23:48;;;;;;;32.63;13.90;;;;;;;;;;6241838;23;20436;-83
2022/03/16 00:26:14;;;;;;;27.13;12.98;;;;;;;;;;6213643;23;20007;-83
2022/03/16 00:28:41;;;;;;;26.40;13.23;;;;;;;;;;6214023;23;20344;-83
2022/03/16 00:31:07;;;;;;;28.77;13.95;;;;;;;;;;6240581;23;19996;-84
2022/03/16 00:33:34;;;;;;;25.30;13.43;;;;;;;;;;6240523;23;20027;-83
2022/03/16 00:36:00;;;;;;;22.40;12.70;;;;;;;;;;6213745;23;20000;-84
2022/03/16 00:38:26;;;;;;;33.03;14.52;;;;;;;;;;6213011;23;20016;-83
2022/03/16 00:40:52;;;;;;;32.55;14.40;;;;;;;;;;6240550;23;20440;-83
2022/03/16 00:43:18;;;;;;;29.27;13.50;;;;;;;;;;6241630;23;20023;-83
2022/03/16 00:45:44;;;;;;;31.48;13.43;;;;;;;;;;6240533;23;20004;-83
2022/03/16 00:48:10;;;;;;;26.48;14.15;;;;;;;;;;6240390;23;20050;-83
2022/03/16 00:50:37;;;;;;;26.88;14.15;;;;;;;;;;6240254;23;20440;-83
2022/03/16 00:53:03;;;;;;;35.58;14.48;;;;;;;;;;6240351;23;19997;-84
2022/03/16 00:55:29;;;;;;;30.02;14.15;;;;;;;;;;6213309;23;20016;-83
2022/03/16 00:57:55;;;;;;;25.25;14.32;;;;;;;;;;6240542;23;20008;-83
2022/03/16 01:00:21;;;;;;;30.52;15.40;;;;;;;;;;6214635;23;20054;-83
2022/03/16 01:02:47;;;;;;;25.73;13.98;;;;;;;;;;6240281;23;20413;-83
2022/03/16 01:05:13;;;;;;;35.42;14.85;;;;;;;;;;6213537;23;20012;-83
2022/03/16 01:07:39;;;;;;;30.83;13.80;;;;;;;;;;6240128;23;20001;-83
2022/03/16 01:10:06;;;;;;;29.85;14.43;;;;;;;;;;6240093;23;20004;-83
2022/03/16 01:12:32;;;;;;;31.48;14.45;;;;;;;;;;6213686;23;20004;-83
2022/03/16 01:14:58;;;;;;;24.73;13.98;;;;;;;;;;6240140;23;20000;-82
2022/03/16 01:17:24;;;;;;;32.63;13.90;;;;;;;;;;6240076;23;19996;-83
2022/03/16 01:19:51;;;;;;;27.65;14.90;;;;;;;;;;6214972;23;20019;-83
2022/03/16 01:22:17;;;;;;;27.13;13.30;;;;;;;;;;6242390;23;20001;-83
2022/03/16 01:24:43;;;;;;;26.92;13.57;;;;;;;;;;6242263;23;20000;-83
2022/03/16 01:27:09;;;;;;;22.98;13.40;;;;;;;;;;6242366;23;20507;-83
2022/03/16 01:29:35;;;;;;;26.25;13.68;;;;;;;;;;6215422;23;20480;-83
2022/03/16 01:32:01;;;;;;;34.97;13.40;;;;;;;;;;6242323;23;20027;-84
2022/03/16 01:34:27;;;;;;;27.00;13.02;;;;;;;;;;6242127;23;20004;-83
2022/03/16 01:36:53;;;;;;;25.60;13.90;;;;;;;;;;6243106;23;20075;-85
2022/03/16 01:39:20;;;;;;;34.92;14.15;;;;;;;;;;6241672;23;20023;-83
2022/03/16 01:41:46;;;;;;;23.75;12.85;;;;;;;;;;6242299;23;20004;-83
2022/03/16 01:44:12;;;;;;;23.70;13.48;;;;;;;;;;6242329;23;20000;-83
2022/03/16 01:46:38;;;;;;;25.52;12.95;;;;;;;;;;6242050;23;20000;-83
2022/03/16 01:49:04;;;;;;;26.70;12.80;;;;;;;;;;6214791;23;20012;-83
2022/03/16 01:51:31;;;;;;;27.73;13.30;;;;;;;;;;6241979;23;20000;-83
2022/03/16 01:53:57;;;;;;;30.00;13.52;;;;;;;;;;6215263;23;20009;-83
2022/03/16 01:56:23;;;;;;;24.42;12.32;;;;;;;;;;6216370;23;20058;-83
2022/03/16 01:58:49;;;;;;;32.88;14.68;;;;;;;;;;6242016;23;20008;-83
2022/03/16 02:01:16;;;;;;;29.13;13.75;;;;;;;;;;6215017;23;20011;-83
2022/03/16 02:03:42;;;;;;;21.90;12.18;;;;;;;;;;6242059;23;20032;-83
2022/03/16 02:06:09;;;;;;;28.33;12.80;;;;;;;;;;6214691;23;20026;-84
2022/03/16 02:08:36;;;;;;;36.90;13.68;;;;;;;;;;6242085;23;20000;-83
2022/03/16 02:11:02;;;;;;;33.00;14.75;;;;;;;;;;6215192;23;20000;-84
2022/03/16 02:13:28;;;;;;;30.02;14.10;;;;;;;;;;6241848;23;20390;-82
2022/03/16 02:15:54;;;;;;;24.63;13.55;;;;;;;;;;6242952;23;20003;-83
2022/03/16 02:18:21;;;;;;;31.40;13.63;;;;;;;;;;6241736;23;20005;-83
2022/03/16 02:20:50;;;;;;;25.85;12.52;;;;;;;;;;6241719;23;20218;-83
2022/03/16 02:23:16;;;;;;;26.77;13.43;;;;;;;;;;6241829;23;20005;-83
2022/03/16 02:25:52;;;;;;;26.63;12.23;;;;;;;;;;6214913;23;20023;-83
2022/03/16 02:28:19;;;;;;;27.23;12.80;;;;;;;;;;6215141;23;20012;-83
2022/03/16 02:30:45;;;;;;;27.17;13.95;;;;;;;;;;6242006;23;20077;-83
2022/03/16 02:33:11;;;;;;;27.65;12.90;;;;;;;;;;6242385;23;20000;-83
2022/03/16 02:35:38;;;;;;;26.40;13.95;;;;;;;;;;6215521;23;20004;-84
2022/03/16 02:38:05;;;;;;;26.48;12.60;;;;;;;;;;6241450;23;20086;-83
2022/03/16 02:40:31;;;;;;;22.38;13.20;;;;;;;;;;6214771;23;20008;-83
2022/03/16 02:42:58;;;;;;;26.20;12.70;;;;;;;;;;6243266;23;20004;-82
2022/03/16 02:45:24;;;;;;;30.00;13.77;;;;;;;;;;6242940;23;20000;-92
2022/03/16 02:47:50;;;;;;;28.42;13.70;;;;;;;;;;6242574;23;20008;-90
2022/03/16 02:50:17;;;;;;;30.30;13.95;;;;;;;;;;6218209;23;20056;-83
2022/03/16 02:52:43;;;;;;;30.13;14.10;;;;;;;;;;6217160;23;20392;-88
2022/03/16 02:55:10;;;;;;;28.15;14.05;;;;;;;;;;6215258;23;20512;-87
2022/03/16 02:57:36;;;;;;;30.65;14.68;;;;;;;;;;6214710;23;20015;-84
2022/03/16 03:00:06;;;;;;;26.90;13.43;;;;;;;;;;6215087;23;20004;-89
2022/03/16 03:02:32;;;;;;;27.95;13.35;;;;;;;;;;6241541;23;20000;-85
2022/03/16 03:05:08;;;;;;;31.98;14.40;;;;;;;;;;6243069;23;20027;-88
2022/03/16 03:07:34;;;;;;;25.17;13.40;;;;;;;;;;6215057;23;20032;-84
2022/03/16 03:10:00;;;;;;;28.88;12.98;;;;;;;;;;6242122;23;20007;-83
2022/03/16 03:12:26;;;;;;;19.65;11.82;;;;;;;;;;6215511;23;20095;-83
2022/03/16 03:14:53;;;;;;;25.55;12.60;;;;;;;;;;6241849;23;19996;-86
2022/03/16 03:17:19;;;;;;;25.15;12.05;;;;;;;;;;6242019;23;20015;-82
2022/03/16 03:19:45;;;;;;;26.77;13.27;;;;;;;;;;6241332;23;20034;-83
2022/03/16 03:22:11;;;;;;;34.53;12.85;;;;;;;;;;6241973;23;20075;-90
2022/03/16 03:24:39;;;;;;;25.42;13.45;;;;;;;;;;6242775;23;20003;-83
2022/03/16 03:27:05;;;;;;;22.35;12.30;;;;;;;;;;6241032;23;20083;-83
2022/03/16 03:29:31;;;;;;;20.98;11.90;;;;;;;;;;6240971;23;20444;-83
2022/03/16 03:31:57;;;;;;;26.00;12.90;;;;;;;;;;6242337;23;20421;-83
2022/03/16 03:34:23;;;;;;;28.48;12.25;;;;;;;;;;6241259;23;20446;-85
2022/03/16 03:36:49;;;;;;;31.90;13.18;;;;;;;;;;6240962;23;20004;-83
2022/03/16 03:39:15;;;;;;;34.40;14.38;;;;;;;;;;6241024;23;20016;-83
2022/03/16 03:41:42;;;;;;;30.00;13.57;;;;;;;;;;6241008;23;19996;-83
2022/03/16 03:44:08;;;;;;;26.20;14.48;;;;;;;;;;6240745;23;20064;-83
2022/03/16 03:46:34;;;;;;;28.58;14.88;;;;;;;;;;6241380;23;20000;-83
2022/03/16 03:49:00;;;;;;;28.50;13.98;;;;;;;;;;6242431;23;20004;-83
2022/03/16 03:51:26;;;;;;;26.95;13.30;;;;;;;;;;6213953;23;20039;-83
2022/03/16 03:53:52;;;;;;;30.67;14.25;;;;;;;;;;6241491;23;20322;-83
2022/03/16 03:56:18;;;;;;;26.45;13.43;;;;;;;;;;6214032;23;20004;-83
2022/03/16 03:58:45;;;;;;;32.03;14.38;;;;;;;;;;6240705;23;20050;-84
2022/03/16 04:01:11;;;;;;;33.60;13.30;;;;;;;;;;6214219;23;20440;-83
2022/03/16 04:03:38;;;;;;;27.70;13.38;;;;;;;;;;6240919;23;20000;-82
2022/03/16 04:06:04;;;;;;;28.15;12.95;;;;;;;;;;6241472;23;20000;-86
2022/03/16 04:08:30;;;;;;;26.00;13.25;;;;;;;;;;6242058;23;20023;-83
2022/03/16 04:10:56;;;;;;;37.95;14.93;;;;;;;;;;6213424;23;20322;-82
2022/03/16 04:13:22;;;;;;;32.30;13.95;;;;;;;;;;6239922;23;20023;-81
2022/03/16 04:15:48;;;;;;;29.80;13.52;;;;;;;;;;6240776;23;20050;-82
2022/03/16 04:18:14;;;;;;;33.78;15.30;;;;;;;;;;6240751;23;20134;-81
2022/03/16 04:20:40;;;;;;;27.27;13.35;;;;;;;;;;6240798;23;20004;-81
2022/03/16 04:23:06;;;;;;;26.45;13.45;;;;;;;;;;6240645;23;20008;-81
2022/03/16 04:25:33;;;;;;;33.08;15.07;;;;;;;;;;6241634;23;20000;-82
2022/03/16 04:27:59;;;;;;;29.70;14.15;;;;;;;;;;6241409;23;20054;-84
2022/03/16 04:30:25;;;;;;;32.92;14.63;;;;;;;;;;6240866;23;20003;-82
2022/03/16 04:32:52;;;;;;;35.20;14.20;;;;;;;;;;6240480;23;20429;-82
2022/03/16 04:35:19;;;;;;;33.42;14.20;;;;;;;;;;6213826;23;20004;-82
2022/03/16 04:37:46;;;;;;;29.48;13.85;;;;;;;;;;6241059;23;20008;-88
2022/03/16 04:40:12;;;;;;;29.38;15.23;;;;;;;;;;6240337;23;20012;-85
2022/03/16 04:42:39;;;;;;;31.50;15.13;;;;;;;;;;6240211;23;20000;-83
2022/03/16 04:45:05;;;;;;;37.35;13.98;;;;;;;;;;6214676;23;20348;-84
2022/03/16 04:47:31;;;;;;;26.98;13.23;;;;;;;;;;6215140;23;20073;-83
2022/03/16 04:49:58;;;;;;;30.60;14.32;;;;;;;;;;6240602;23;20000;-84
2022/03/16 04:52:25;;;;;;;36.92;15.05;;;;;;;;;;6240945;23;20000;-84
2022/03/16 04:54:51;;;;;;;34.47;14.77;;;;;;;;;;6240447;23;20000;-84
2022/03/16 04:57:17;;;;;;;30.95;14.40;;;;;;;;;;6240654;23;20007;-88
2022/03/16 04:59:43;;;;;;;30.33;15.35;;;;;;;;;;6213763;23;20008;-83
2022/03/16 05:02:09;;;;;;;28.48;14.05;;;;;;;;;;6240680;23;19996;-84
2022/03/16 05:04:35;;;;;;;29.65;13.80;;;;;;;;;;6241409;23;20004;-86
2022/03/16 05:07:40;;;;;;;;;;;;;;;;;;;;;
2022/03/16 05:23:14;;;;;;;36.70;15.88;;;;;;;;;;5979067;24;20533;-95
2022/03/16 09:06:43;;;;;;;22.33;10.32;;;;;;;;;;6240559;22;20011;-89
2022/03/16 09:09:31;;;;;;;30.40;11.50;;;;;;;;;;6095986;23;20041;-89
2022/03/16 09:12:01;;;;;;;18.48;9.93;;;;;;;;;;6216027;23;20035;-90
2022/03/16 09:14:29;;;;;;;26.60;11.02;;;;;;;;;;6216753;23;20009;-91
2022/03/16 09:17:03;;;;;;;23.10;10.98;;;;;;;;;;6216688;23;20090;-90
2022/03/16 09:19:50;;;;;;;22.02;10.57;;;;;;;;;;6215963;23;20020;-90
2022/03/16 09:22:37;;;;;;;;;;;;;;;;;;;;;
2022/03/16 09:35:08;;;;;;;24.45;10.35;;;;;;;;;;5817957;24;19994;-91
2022/03/16 09:37:34;;;;;;;22.58;10.48;;;;;;;;;;5876513;24;20020;-90
2022/03/16 09:40:02;;;;;;;19.02;10.00;;;;;;;;;;6165763;23;20091;-92
2022/03/16 09:51:55;;;;;;;22.73;9.80;;;;;;;;;;6093460;23;20318;-92
2022/03/16 09:54:22;;;;;;;24.45;10.40;;;;;;;;;;6027002;23;20013;-90
2022/03/16 09:56:48;;;;;;;22.02;9.68;;;;;;;;;;6201236;23;20102;-92
2022/03/16 09:59:15;;;;;;;20.30;8.93;;;;;;;;;;6217371;23;20012;-91
2022/03/16 10:01:42;;;;;;;20.38;9.73;;;;;;;;;;6218568;23;20004;-88
2022/03/16 10:04:08;;;;;;;19.80;9.63;;;;;;;;;;6217718;23;20369;-91
2022/03/16 10:06:38;;;;;;;23.15;9.20;;;;;;;;;;6217918;23;20346;-90
2022/03/16 10:15:44;;;;;;;16.08;9.38;;;;;;;;;;6225232;23;20014;-94
2022/03/16 10:18:10;;;;;;;24.87;8.70;;;;;;;;;;6211555;23;20122;-92
2022/03/16 10:21:10;;;;;;;;;;;;;;;;;;;;;
2022/03/16 10:23:36;;;;;;;20.50;10.30;;;;;;;;;;6257165;23;20027;-91
2022/03/16 10:26:03;;;;;;;25.58;9.98;;;;;;;;;;6232871;23;20018;-90
2022/03/16 10:28:57;;;;;;;21.27;9.15;;;;;;;;;;6224675;23;20012;-92
2022/03/16 10:31:25;;;;;;;22.33;9.90;;;;;;;;;;6194913;23;20007;-89
2022/03/16 10:34:03;;;;;;;;;;;;;;;;;;6217210;23;20000;-91
2022/03/16 10:36:39;;;;;;;;;;;;;;;;;;6216787;23;19899;-92
2022/03/16 10:39:34;;;;;;;20.98;10.90;;;;;;;;;;6216180;23;20033;-90
2022/03/16 10:48:22;;;;;;;23.15;10.00;;;;;;;;;;6242966;23;20185;-90
2022/03/16 10:50:49;;;;;;;23.65;9.40;;;;;;;;;;6243383;23;20004;-90
2022/03/16 10:53:16;;;;;;;24.63;10.45;;;;;;;;;;6216286;23;20430;-89
2022/03/16 10:55:43;;;;;;;23.50;9.77;;;;;;;;;;6216518;23;20004;-88
2022/03/16 10:58:12;;;;;;;26.25;8.73;;;;;;;;;;6215793;23;20028;-92
2022/03/16 11:00:39;;;;;;;24.77;9.68;;;;;;;;;;6216459;23;20035;-89
2022/03/16 11:03:06;;;;;;;19.25;9.77;;;;;;;;;;6216290;23;20000;-94
2022/03/16 11:05:59;;;;;;;23.85;9.25;;;;;;;;;;6215680;23;20012;-91
2022/03/16 11:08:27;;;;;;;21.23;9.95;;;;;;;;;;6215644;23;20023;-92
2022/03/16 11:10:53;;;;;;;20.88;9.73;;;;;;;;;;6216897;23;20086;-91
2022/03/16 11:13:37;;;;;;;24.33;9.98;;;;;;;;;;6217164;23;20340;-91
2022/03/16 11:16:06;;;;;;;20.15;11.23;;;;;;;;;;6216262;23;20512;-90
2022/03/16 11:18:41;;;;;;;;;;;;;;;;;;6217331;23;20091;-93
2022/03/16 11:21:12;;;;;;;25.02;10.07;;;;;;;;;;6216126;23;19903;-92
2022/03/16 11:26:41;;;;;;;22.23;9.23;;;;;;;;;;6240244;23;20086;-91
2022/03/16 11:29:26;;;;;;;23.45;8.50;;;;;;;;;;6219252;23;20000;-92
2022/03/16 11:32:07;;;;;;;16.92;8.48;;;;;;;;;;6243716;23;20340;-90
2022/03/16 11:34:35;;;;;;;22.30;8.45;;;;;;;;;;6216639;23;20004;-92
2022/03/16 11:37:02;;;;;;;33.85;9.68;;;;;;;;;;6216704;23;20004;-89
2022/03/16 11:39:39;;;;;;;27.05;8.70;;;;;;;;;;6217164;23;20028;-91
2022/03/16 11:42:25;;;;;;;26.42;9.23;;;;;;;;;;6217621;23;20187;-91
2022/03/16 11:45:11;;;;;;;26.35;9.50;;;;;;;;;;6217337;23;20032;-90
2022/03/16 11:47:37;;;;;;;28.63;8.93;;;;;;;;;;6216093;23;20440;-91
2022/03/16 11:50:19;;;;;;;26.20;9.27;;;;;;;;;;6217418;23;20011;-91
2022/03/16 11:53:04;;;;;;;32.97;8.75;;;;;;;;;;6242613;23;19996;-91
2022/03/16 11:55:40;;;;;;;22.15;9.55;;;;;;;;;;6215748;23;20100;-90
2022/03/16 11:58:16;;;;;;;21.83;8.85;;;;;;;;;;6215689;23;20000;-90
2022/03/16 12:00:44;;;;;;;24.65;9.30;;;;;;;;;;6216825;23;20349;-92
2022/03/16 12:03:20;;;;;;;25.75;9.50;;;;;;;;;;6216129;23;20011;-91
2022/03/16 12:05:55;;;;;;;18.90;8.82;;;;;;;;;;6215443;23;20441;-90
2022/03/16 12:08:24;;;;;;;24.90;9.02;;;;;;;;;;6215607;23;20016;-90
2022/03/16 12:12:50;;;;;;;24.83;9.10;;;;;;;;;;6215950;23;20023;-93
2022/03/16 12:13:44;;;;;;;20.98;8.23;;;;;;;;;;6242218;23;20440;-89
2022/03/16 12:16:12;;;;;;;28.00;9.43;;;;;;;;;;6216533;23;20000;-90
2022/03/16 12:18:57;;;;;;;26.38;9.05;;;;;;;;;;6215509;23;20016;-92
2022/03/16 12:21:33;;;;;;;27.20;10.45;;;;;;;;;;6215919;23;20004;-90
2022/03/16 12:30:24;;;;;;;25.48;10.30;;;;;;;;;;6242871;23;20086;-91
2022/03/16 12:32:55;;;;;;;27.38;9.77;;;;;;;;;;6214874;23;20091;-91
2022/03/16 12:35:33;;;;;;;32.80;10.10;;;;;;;;;;6215916;23;20413;-92
2022/03/16 12:38:20;;;;;;;25.70;9.70;;;;;;;;;;6216173;23;20004;-91
2022/03/16 12:43:39;;;;;;;26.08;10.00;;;;;;;;;;6242683;23;20018;-91
2022/03/16 12:46:25;;;;;;;19.92;10.00;;;;;;;;;;6216439;23;20016;-92
2022/03/16 12:49:14;;;;;;;33.92;10.43;;;;;;;;;;6215915;23;20070;-90
2022/03/16 12:51:47;;;;;;;28.80;10.00;;;;;;;;;;6216077;23;20061;-91
2022/03/16 12:54:22;;;;;;;27.75;9.65;;;;;;;;;;6216786;23;20004;-91
2022/03/16 12:56:55;;;;;;;30.92;9.25;;;;;;;;;;6215694;23;20449;-93
2022/03/16 12:59:52;;;;;;;;;;;;;;;;;;;;;
2022/03/16 13:03:02;;;;;;;30.00;10.60;;;;;;;;;;6260633;23;20004;-92
2022/03/16 13:05:35;;;;;;;28.33;11.13;;;;;;;;;;6248473;23;20012;-91
2022/03/16 13:08:01;;;;;;;29.83;10.02;;;;;;;;;;6216565;23;20012;-91
2022/03/16 13:10:28;;;;;;;23.98;10.20;;;;;;;;;;6215856;23;20008;-93
2022/03/16 13:13:10;;;;;;;27.35;9.65;;;;;;;;;;6215674;23;20004;-91
2022/03/16 13:15:49;;;;;;;30.92;9.70;;;;;;;;;;6216911;23;20000;-92
2022/03/16 13:18:45;;;;;;;31.63;10.40;;;;;;;;;;6218502;23;20345;-91
2022/03/16 13:21:39;;;;;;;34.33;9.80;;;;;;;;;;6217660;23;20449;-92
2022/03/16 13:24:18;;;;;;;33.95;10.25;;;;;;;;;;6216660;23;20032;-92
2022/03/16 13:27:10;;;;;;;29.45;9.75;;;;;;;;;;6218878;23;20000;-91
2022/03/16 13:29:40;;;;;;;41.85;11.07;;;;;;;;;;6217984;23;20440;-90
2022/03/16 13:32:07;;;;;;;40.03;11.13;;;;;;;;;;6218198;23;20462;-91
2022/03/16 13:34:59;;;;;;;45.03;11.63;;;;;;;;;;6218502;23;20409;-91
2022/03/16 13:37:58;;;;;;;43.15;11.18;;;;;;;;;;6244016;23;20085;-91
2022/03/16 13:40:28;;;;;;;31.48;11.30;;;;;;;;;;6218018;23;20015;-91
2022/03/16 13:43:04;;;;;;;41.88;11.20;;;;;;;;;;6217856;23;20011;-92
2022/03/16 13:45:48;;;;;;;;;;;;;;;;;;;;;
2022/03/16 13:48:16;;;;;;;42.95;12.32;;;;;;;;;;6245104;23;20481;-90
2022/03/16 13:53:52;;;;;;;39.40;11.60;;;;;;;;;;6208112;23;20062;-91
2022/03/16 13:59:46;;;;;;;;;;;;;;;;;;;;;
2022/03/16 14:02:21;;;;;;;51.70;12.63;;;;;;;;;;6244387;23;20088;-92
2022/03/16 14:04:47;;;;;;;54.80;13.70;;;;;;;;;;6217978;23;20325;-91
2022/03/16 14:07:17;;;;;;;57.90;13.30;;;;;;;;;;6217839;23;20004;-91
2022/03/16 14:09:44;;;;;;;43.60;12.35;;;;;;;;;;6218721;23;20004;-90
2022/03/16 14:12:14;;;;;;;63.42;13.23;;;;;;;;;;6217807;23;20484;-91
2022/03/16 14:14:46;;;;;;;61.75;13.95;;;;;;;;;;6217742;23;19996;-92
2022/03/16 14:17:12;;;;;;;49.03;13.18;;;;;;;;;;6217121;23;20007;-92
2022/03/16 14:19:54;;;;;;;;;;;;;;;;;;;;;
2022/03/16 14:22:22;;;;;;;51.63;14.90;;;;;;;;;;6244731;23;20090;-90
2022/03/16 14:24:48;;;;;;;54.35;14.23;;;;;;;;;;6218697;23;20008;-92
2022/03/16 14:27:44;;;;;;;53.67;14.35;;;;;;;;;;6217287;23;20011;-92
2022/03/16 14:30:12;;;;;;;71.90;16.17;;;;;;;;;;6204223;23;20062;-89
2022/03/16 14:32:43;;;;;;;54.97;14.85;;;;;;;;;;6217140;23;20401;-91
2022/03/16 14:35:41;;;;;;;59.80;15.07;;;;;;;;;;6217903;23;20087;-93
2022/03/16 14:38:17;;;;;;;53.40;15.35;;;;;;;;;;6217071;23;20440;-91
2022/03/16 14:41:07;;;;;;;52.22;15.73;;;;;;;;;;6217133;23;20091;-92
2022/03/16 14:43:56;;;;;;;52.67;16.90;;;;;;;;;;6217554;23;20004;-90
2022/03/16 14:46:22;;;;;;;57.08;16.33;;;;;;;;;;6217346;23;20008;-90
2022/03/16 14:48:48;;;;;;;57.85;17.90;;;;;;;;;;6217709;23;20022;-89
2022/03/16 14:51:14;;;;;;;62.05;17.85;;;;;;;;;;6218528;23;20004;-89
2022/03/16 14:53:40;;;;;;;69.85;17.08;;;;;;;;;;6217363;23;20004;-88
2022/03/16 14:56:06;;;;;;;53.03;15.95;;;;;;;;;;6218266;23;20391;-89
2022/03/16 14:58:32;;;;;;;46.17;14.77;;;;;;;;;;6217589;23;20016;-88
2022/03/16 15:00:58;;;;;;;25.10;11.32;;;;;;;;;;6218543;23;20456;-90
2022/03/16 15:03:24;;;;;;;15.82;8.98;;;;;;;;;;6217867;23;20004;-88
2022/03/16 15:05:50;;;;;;;20.98;9.07;;;;;;;;;;6218333;23;20015;-89
2022/03/16 15:08:18;;;;;;;8.48;6.38;;;;;;;;;;6216698;23;20004;-87
2022/03/16 15:10:44;;;;;;;17.25;8.55;;;;;;;;;;6218296;23;20007;-88
2022/03/16 15:13:10;;;;;;;11.45;7.47;;;;;;;;;;6218252;23;20000;-89
2022/03/16 15:15:36;;;;;;;11.13;6.50;;;;;;;;;;6217074;23;20008;-91
2022/03/16 15:18:03;;;;;;;10.52;5.50;;;;;;;;;;6216709;23;20007;-88
2022/03/16 15:20:38;;;;;;;7.07;5.40;;;;;;;;;;6216050;23;20065;-88
2022/03/16 15:23:04;;;;;;;8.00;5.63;;;;;;;;;;6216982;23;20432;-89
2022/03/16 15:25:39;;;;;;;11.77;5.60;;;;;;;;;;6216566;23;20011;-92
2022/03/16 15:28:05;;;;;;;9.50;5.50;;;;;;;;;;6215503;23;20004;-91
2022/03/16 15:30:35;;;;;;;8.05;4.55;;;;;;;;;;6216073;23;20004;-91
2022/03/16 15:36:39;;;;;;;7.35;4.70;;;;;;;;;;6120986;23;20008;-92
2022/03/16 15:39:35;;;;;;;9.45;4.75;;;;;;;;;;6207829;23;20091;-93
2022/03/16 15:45:10;;;;;;;8.18;5.10;;;;;;;;;;6242878;23;20035;-93
2022/03/16 15:47:37;;;;;;;16.20;7.60;;;;;;;;;;6215917;23;20448;-93
2022/03/16 15:50:05;;;;;;;9.73;5.40;;;;;;;;;;6216546;23;19996;-90
2022/03/16 15:52:33;;;;;;;16.83;6.97;;;;;;;;;;6216466;23;20322;-91
2022/03/16 15:55:25;;;;;;;16.48;7.18;;;;;;;;;;6216795;23;20004;-91
2022/03/16 15:57:54;;;;;;;12.73;6.88;;;;;;;;;;6217441;23;20008;-91
2022/03/16 16:00:23;;;;;;;14.38;6.60;;;;;;;;;;6217198;23;20095;-90
2022/03/16 16:02:51;;;;;;;15.07;8.27;;;;;;;;;;6217464;23;20036;-91
2022/03/16 16:05:28;;;;;;;14.55;6.85;;;;;;;;;;6243010;23;20050;-89
2022/03/16 16:07:57;;;;;;;16.10;6.35;;;;;;;;;;6215944;23;20015;-90
2022/03/16 16:10:23;;;;;;;9.45;5.72;;;;;;;;;;6215656;23;20000;-91
2022/03/16 16:12:50;;;;;;;15.02;8.27;;;;;;;;;;6216461;23;20012;-90
2022/03/16 16:15:16;;;;;;;20.65;8.82;;;;;;;;;;6214946;23;20000;-91
2022/03/16 16:17:42;;;;;;;13.27;7.68;;;;;;;;;;6215540;23;20027;-92
2022/03/16 16:20:13;;;;;;;13.30;6.53;;;;;;;;;;6215366;23;20019;-91
2022/03/16 16:23:10;;;;;;;;;;;;;;;;;;;;;
2022/03/16 16:25:42;;;;;;;14.73;7.28;;;;;;;;;;6230608;23;20087;-92
2022/03/16 16:28:21;;;;;;;17.95;8.15;;;;;;;;;;6215562;23;20004;-93
2022/03/16 16:30:48;;;;;;;17.83;9.50;;;;;;;;;;6215474;23;20345;-89
2022/03/16 16:33:17;;;;;;;17.60;8.60;;;;;;;;;;6215011;23;20008;-91
2022/03/16 16:35:46;;;;;;;24.58;9.00;;;;;;;;;;6215598;23;20054;-93
2022/03/16 16:38:14;;;;;;;;;;;;;;;;;;6216898;23;20349;-93
2022/03/16 16:40:41;;;;;;;11.73;6.28;;;;;;;;;;6215970;23;19906;-91
2022/03/16 16:43:12;;;;;;;20.45;9.25;;;;;;;;;;6208356;23;20012;-93
2022/03/16 16:45:49;;;;;;;20.55;9.63;;;;;;;;;;6214848;23;20008;-92
2022/03/16 16:48:38;;;;;;;24.30;9.07;;;;;;;;;;6215777;23;20008;-91
2022/03/16 16:51:31;;;;;;;17.00;8.77;;;;;;;;;;6201920;23;20000;-93
2022/03/16 17:00:16;;;;;;;14.88;7.25;;;;;;;;;;6061637;23;20470;-90
2022/03/16 17:03:03;;;;;;;;;;;;;;;;;;;;;
2022/03/16 17:05:59;;;;;;;17.65;7.40;;;;;;;;;;6242400;23;20406;-89
2022/03/16 17:08:48;;;;;;;19.27;7.05;;;;;;;;;;6205873;23;20012;-91
2022/03/16 17:14:12;;;;;;;31.58;7.72;;;;;;;;;;6185113;23;20000;-89
2022/03/16 17:16:49;;;;;;;12.32;6.30;;;;;;;;;;6160436;23;20020;-89
2022/03/16 17:19:25;;;;;;;14.05;6.93;;;;;;;;;;6184759;23;20012;-89
2022/03/16 17:21:51;;;;;;;12.57;6.10;;;;;;;;;;6185059;23;20000;-90
2022/03/16 17:24:17;;;;;;;12.70;6.25;;;;;;;;;;6185242;23;20380;-91
2022/03/16 17:26:47;;;;;;;11.95;6.32;;;;;;;;;;6185042;23;20445;-92
2022/03/16 17:29:15;;;;;;;14.90;7.45;;;;;;;;;;6184923;23;20434;-91
2022/03/16 17:31:44;;;;;;;23.23;9.52;;;;;;;;;;6185263;23;20004;-90
2022/03/16 17:34:29;;;;;;;;;;;;;;;;;;;;;
2022/03/16 17:37:30;;;;;;;15.32;7.75;;;;;;;;;;6212312;23;20084;-91
2022/03/16 17:39:59;;;;;;;11.25;6.70;;;;;;;;;;6185232;23;20017;-90
2022/03/16 17:45:38;;;;;;;26.35;12.68;;;;;;;;;;6211309;23;20020;-90
2022/03/16 17:48:07;;;;;;;24.52;12.43;;;;;;;;;;6184712;23;20001;-91
2022/03/16 17:50:35;;;;;;;25.52;14.65;;;;;;;;;;6185230;23;20000;-91
2022/03/16 17:53:01;;;;;;;28.35;14.38;;;;;;;;;;6184889;23;20004;-90
2022/03/16 18:01:19;;;;;;;35.83;17.90;;;;;;;;;;6113263;23;20070;-89
2022/03/16 18:03:45;;;;;;;47.95;19.00;;;;;;;;;;6186421;23;20009;-89
2022/03/16 18:06:18;;;;;;;39.13;20.35;;;;;;;;;;6186577;23;20004;-91
2022/03/16 18:14:36;;;;;;;52.65;23.02;;;;;;;;;;6229880;22;20016;-90
2022/03/16 18:17:19;;;;;;;;;;;;;;;;;;;;;
2022/03/16 18:19:48;;;;;;;56.25;25.88;;;;;;;;;;6240555;22;19993;-89
2022/03/16 18:22:26;;;;;;;47.92;22.65;;;;;;;;;;6196892;23;20009;-93
2022/03/16 18:25:05;;;;;;;;;;;;;;;;;;;;;
2022/03/16 18:27:39;;;;;;;83.22;33.15;;;;;;;;;;6213723;23;20091;-89
2022/03/16 18:30:27;;;;;;;85.78;34.63;;;;;;;;;;6188211;23;20047;-91
2022/03/16 18:32:52;;;;;;;49.47;22.98;;;;;;;;;;6215324;23;20008;-91
2022/03/16 18:35:51;;;;;;;62.30;22.58;;;;;;;;;;6187364;23;20005;-91
2022/03/16 18:38:23;;;;;;;60.33;22.83;;;;;;;;;;6164409;23;20079;-90
2022/03/16 18:40:53;;;;;;;69.38;29.10;;;;;;;;;;6187343;23;20115;-91
2022/03/16 18:43:20;;;;;;;65.60;25.40;;;;;;;;;;6187106;23;20008;-91
2022/03/16 18:45:47;;;;;;;97.30;38.33;;;;;;;;;;6187013;23;20016;-89
2022/03/16 18:48:15;;;;;;;66.95;27.35;;;;;;;;;;6186569;23;20058;-92
2022/03/16 18:50:45;;;;;;;53.67;22.88;;;;;;;;;;6187199;23;20039;-90
2022/03/16 18:53:14;;;;;;;57.28;23.48;;;;;;;;;;6187536;23;20000;-89
2022/03/16 18:55:40;;;;;;;;;;;;;;;;;;6187148;23;20441;-90
2022/03/16 18:58:06;;;;;;;53.47;20.60;;;;;;;;;;6186880;23;19974;-89
2022/03/16 19:00:34;;;;;;;55.30;19.60;;;;;;;;;;6186198;23;20087;-90
2022/03/16 19:03:02;;;;;;;46.38;17.90;;;;;;;;;;6186685;23;20400;-91
2022/03/16 19:05:34;;;;;;;40.42;16.95;;;;;;;;;;6186491;23;20354;-92
2022/03/16 19:08:01;;;;;;;40.38;17.08;;;;;;;;;;6186743;23;20013;-92
2022/03/16 19:10:27;;;;;;;47.72;17.55;;;;;;;;;;6186491;23;20010;-91
2022/03/16 19:15:38;;;;;;;46.35;18.52;;;;;;;;;;6212734;23;20015;-91
2022/03/16 19:18:05;;;;;;;40.38;13.65;;;;;;;;;;6186176;23;20032;-91
2022/03/16 19:20:34;;;;;;;41.78;13.70;;;;;;;;;;6186006;23;20473;-91
2022/03/16 19:23:01;;;;;;;44.42;12.48;;;;;;;;;;6186119;23;20058;-90
2022/03/16 19:25:28;;;;;;;32.83;10.93;;;;;;;;;;6185942;23;20012;-91
2022/03/16 19:27:56;;;;;;;34.28;10.75;;;;;;;;;;6187276;23;20009;-88
2022/03/16 19:30:25;;;;;;;32.92;10.57;;;;;;;;;;6187496;23;20004;-90
2022/03/16 19:32:52;;;;;;;27.63;9.15;;;;;;;;;;6184447;23;20004;-82
2022/03/16 19:35:19;;;;;;;73.22;32.42;;;;;;;;;;6209729;23;20437;-81
2022/03/16 19:37:45;;;;;;;36.88;16.30;;;;;;;;;;6210600;23;20024;-84
2022/03/16 19:40:12;;;;;;;32.38;16.05;;;;;;;;;;6210364;23;20349;-80
2022/03/16 19:42:40;;;;;;;25.33;8.52;;;;;;;;;;6210314;23;20056;-83
2022/03/16 19:45:06;;;;;;;;;;;;;;;;;;6211198;23;20000;-82
2022/03/16 19:47:33;;;;;;;28.40;8.02;;;;;;;;;;6183590;23;19900;-82
2022/03/16 19:49:59;;;;;;;27.67;7.80;;;;;;;;;;6210643;23;20004;-81
2022/03/16 19:52:25;;;;;;;30.55;11.15;;;;;;;;;;6211647;23;19997;-82
2022/03/16 19:54:51;;;;;;;43.67;15.57;;;;;;;;;;6184676;23;20067;-82
2022/03/16 19:57:18;;;;;;;25.67;8.93;;;;;;;;;;6183883;23;20468;-81
2022/03/16 19:59:44;;;;;;;22.15;6.63;;;;;;;;;;6210036;23;20012;-82
2022/03/16 20:02:10;;;;;;;28.27;6.13;;;;;;;;;;6183782;23;20001;-80
2022/03/16 20:04:37;;;;;;;22.77;6.22;;;;;;;;;;6210624;23;20373;-81
2022/03/16 20:07:03;;;;;;;24.15;7.13;;;;;;;;;;6210527;23;20083;-80
2022/03/16 20:09:30;;;;;;;24.52;7.53;;;;;;;;;;6210535;23;20008;-83
2022/03/16 20:11:56;;;;;;;26.27;6.93;;;;;;;;;;6211269;23;20001;-82
2022/03/16 20:14:23;;;;;;;36.35;8.25;;;;;;;;;;6184928;23;20008;-81
2022/03/16 20:16:50;;;;;;;33.10;8.55;;;;;;;;;;6210573;23;20026;-84